Dendermonde, Belgium
Current Conditions -  °F | °C
As of 5:20 PM on Saturday 25 Oct 2014 (Local Time) from EBAW Reporting Station
Few Clouds Few Clouds  
Wind Chill: 57°   Ceiling: Unl
Heat Index: 57°   Visibility: 6mi
Dew Point: 45°   Wind: 8mph
Humidity: 63%   Direction: 280°W
Pressure: 30.12"   Gusts: NA
Location:  51.03°N, 4.1°E
Report Text: EBAW 251520Z 28007KT 9999 FEW035 14/07 Q1020 NOSIG
Loading
Personal Weather Stations






























Interactive Weather Map
Tropical Storm Tracking
New forecast layout! Learn more

10-Day Weather Forecast

Advertisements
Track Severe Weather on mobile